EJU782W LFMN-LFBZ
Flight info
| Callsign | EJU782W |
|---|---|
| Flight time | 1h 8m |
| Altitude | 31000 |
| Route | TURIL DCT PADKO/N0456F320 DCT FJR DCT GAI/N0455F310 DCT AGN DCT TBO DCT ORTEZ G17 SOVOS |
| Aircraft | A320/M-SDE3FGHIRWY/LB1 |
Departure
| Time | 2026-05-04 19:04 |
|---|---|
| Airport | Nice-Côte d'Azur Airport (LFMN) |
Arrival
| Time | 2026-05-04 20:12 |
|---|---|
| Airport | Biarritz Pays Basque airport (LFBZ) |
| Time | Latitude | Longitude | Altitude | Speed | Heading |
|---|---|---|---|---|---|
| 2026-05-04 18:47 | 43.65901 | 7.20659 | 21 ft | 0 kts | 315° |
| 2026-05-04 18:52 | 43.65888 | 7.20676 | 20 ft | 4 kts | 315° |
| 2026-05-04 18:52 | 43.65870 | 7.20703 | 24 ft | 4 kts | 310° |
| 2026-05-04 18:53 | 43.65855 | 7.20733 | 22 ft | 4 kts | 285° |
| 2026-05-04 18:53 | 43.65855 | 7.20764 | 20 ft | 3 kts | 226° |
| 2026-05-04 18:53 | 43.65857 | 7.20767 | 23 ft | 0 kts | 224° |
| 2026-05-04 18:57 | 43.65852 | 7.20761 | 21 ft | 6 kts | 224° |
| 2026-05-04 18:58 | 43.65801 | 7.20690 | 20 ft | 11 kts | 225° |
| 2026-05-04 18:58 | 43.65745 | 7.20613 | 19 ft | 12 kts | 225° |
| 2026-05-04 18:58 | 43.65686 | 7.20532 | 18 ft | 12 kts | 224° |
| 2026-05-04 18:58 | 43.65621 | 7.20444 | 18 ft | 14 kts | 225° |
| 2026-05-04 18:59 | 43.65526 | 7.20312 | 17 ft | 21 kts | 225° |
| 2026-05-04 18:59 | 43.65430 | 7.20190 | 18 ft | 17 kts | 206° |
| 2026-05-04 18:59 | 43.65331 | 7.20225 | 18 ft | 16 kts | 140° |
| 2026-05-04 18:59 | 43.65258 | 7.20323 | 17 ft | 4 kts | 135° |
| 2026-05-04 19:00 | 43.65247 | 7.20339 | 18 ft | 9 kts | 135° |
| 2026-05-04 19:00 | 43.65188 | 7.20420 | 21 ft | 12 kts | 136° |
| 2026-05-04 19:00 | 43.65122 | 7.20496 | 21 ft | 13 kts | 149° |
| 2026-05-04 19:00 | 43.65033 | 7.20501 | 24 ft | 12 kts | 199° |
| 2026-05-04 19:01 | 43.64969 | 7.20431 | 23 ft | 14 kts | 225° |
| 2026-05-04 19:01 | 43.64902 | 7.20338 | 22 ft | 14 kts | 224° |
| 2026-05-04 19:01 | 43.64841 | 7.20276 | 23 ft | 4 kts | 203° |
| 2026-05-04 19:01 | 43.64820 | 7.20271 | 22 ft | 4 kts | 180° |
| 2026-05-04 19:02 | 43.64808 | 7.20278 | 22 ft | 4 kts | 155° |
| 2026-05-04 19:02 | 43.64765 | 7.20336 | 25 ft | 8 kts | 129° |
| 2026-05-04 19:02 | 43.64767 | 7.20380 | 23 ft | 0 kts | 48° |
| 2026-05-04 19:03 | 43.64774 | 7.20391 | 23 ft | 8 kts | 48° |
| 2026-05-04 19:03 | 43.64987 | 7.20689 | 23 ft | 78 kts | 44° |
| 2026-05-04 19:03 | 43.65508 | 7.21405 | 25 ft | 131 kts | 45° |
| 2026-05-04 19:03 | 43.66256 | 7.22396 | 263 ft | 154 kts | 47° |
| 2026-05-04 19:04 | 43.66953 | 7.23510 | 905 ft | 156 kts | 71° |
| 2026-05-04 19:04 | 43.66842 | 7.24989 | 1425 ft | 171 kts | 118° |
| 2026-05-04 19:04 | 43.65945 | 7.26262 | 1731 ft | 196 kts | 135° |
| 2026-05-04 19:04 | 43.64923 | 7.27625 | 2161 ft | 211 kts | 133° |
| 2026-05-04 19:05 | 43.63846 | 7.29022 | 2911 ft | 215 kts | 135° |
| 2026-05-04 19:05 | 43.62755 | 7.30421 | 3770 ft | 214 kts | 134° |
| 2026-05-04 19:05 | 43.61677 | 7.31838 | 4563 ft | 215 kts | 134° |
| 2026-05-04 19:05 | 43.60567 | 7.33221 | 5291 ft | 218 kts | 144° |
| 2026-05-04 19:06 | 43.59152 | 7.33979 | 6015 ft | 222 kts | 171° |
| 2026-05-04 19:06 | 43.57595 | 7.33871 | 6763 ft | 226 kts | 184° |
| 2026-05-04 19:06 | 43.56043 | 7.33599 | 7528 ft | 225 kts | 185° |
| 2026-05-04 19:06 | 43.54489 | 7.33339 | 8299 ft | 225 kts | 185° |
| 2026-05-04 19:07 | 43.52934 | 7.33085 | 9058 ft | 226 kts | 186° |
| 2026-05-04 19:07 | 43.51372 | 7.32833 | 9807 ft | 227 kts | 186° |
| 2026-05-04 19:07 | 43.49729 | 7.32573 | 10142 ft | 249 kts | 186° |
| 2026-05-04 19:07 | 43.47932 | 7.32290 | 10386 ft | 272 kts | 186° |
| 2026-05-04 19:08 | 43.45972 | 7.31977 | 10595 ft | 295 kts | 187° |
| 2026-05-04 19:08 | 43.43848 | 7.31634 | 10782 ft | 318 kts | 187° |
| 2026-05-04 19:08 | 43.41577 | 7.31269 | 11013 ft | 337 kts | 187° |
| 2026-05-04 19:08 | 43.39212 | 7.30890 | 11559 ft | 345 kts | 187° |
| 2026-05-04 19:09 | 43.36810 | 7.30502 | 12204 ft | 350 kts | 187° |
| 2026-05-04 19:09 | 43.34378 | 7.30113 | 12851 ft | 354 kts | 187° |
| 2026-05-04 19:09 | 43.31920 | 7.29682 | 13487 ft | 358 kts | 192° |
| 2026-05-04 19:09 | 43.29576 | 7.28504 | 14072 ft | 361 kts | 211° |
| 2026-05-04 19:10 | 43.27636 | 7.26326 | 14634 ft | 364 kts | 229° |
| 2026-05-04 19:10 | 43.26299 | 7.23358 | 15227 ft | 369 kts | 245° |
| 2026-05-04 19:10 | 43.25287 | 7.20115 | 15844 ft | 371 kts | 246° |
| 2026-05-04 19:10 | 43.24275 | 7.16851 | 16440 ft | 373 kts | 245° |
| 2026-05-04 19:11 | 43.23254 | 7.13560 | 17035 ft | 376 kts | 245° |
| 2026-05-04 19:11 | 43.22224 | 7.10242 | 17618 ft | 380 kts | 245° |
| 2026-05-04 19:11 | 43.21179 | 7.06904 | 18204 ft | 383 kts | 245° |
| 2026-05-04 19:11 | 43.20122 | 7.03546 | 18720 ft | 386 kts | 245° |
| 2026-05-04 19:12 | 43.19080 | 7.00144 | 19232 ft | 389 kts | 249° |
| 2026-05-04 19:12 | 43.18218 | 6.92772 | 20210 ft | 401 kts | 269° |
| 2026-05-04 19:12 | 43.18553 | 6.88950 | 20693 ft | 406 kts | 277° |
| 2026-05-04 19:13 | 43.19020 | 6.85126 | 21161 ft | 408 kts | 276° |
| 2026-05-04 19:13 | 43.19485 | 6.81270 | 21626 ft | 411 kts | 276° |
| 2026-05-04 19:13 | 43.19945 | 6.77399 | 22068 ft | 414 kts | 276° |
| 2026-05-04 19:13 | 43.20402 | 6.73498 | 22509 ft | 416 kts | 276° |
| 2026-05-04 19:14 | 43.20859 | 6.69562 | 22939 ft | 419 kts | 276° |
| 2026-05-04 19:14 | 43.21316 | 6.65614 | 23350 ft | 421 kts | 276° |
| 2026-05-04 19:14 | 43.21774 | 6.61644 | 23733 ft | 423 kts | 275° |
| 2026-05-04 19:14 | 43.21993 | 6.57570 | 24087 ft | 422 kts | 268° |
| 2026-05-04 19:15 | 43.22051 | 6.53551 | 24452 ft | 423 kts | 268° |
| 2026-05-04 19:15 | 43.22106 | 6.49568 | 24806 ft | 424 kts | 268° |
| 2026-05-04 19:15 | 43.22162 | 6.45463 | 25174 ft | 425 kts | 268° |
| 2026-05-04 19:15 | 43.22217 | 6.41407 | 25502 ft | 426 kts | 268° |
| 2026-05-04 19:16 | 43.22271 | 6.37389 | 25853 ft | 427 kts | 268° |
| 2026-05-04 19:16 | 43.22327 | 6.33261 | 26190 ft | 428 kts | 268° |
| 2026-05-04 19:16 | 43.22384 | 6.29178 | 26510 ft | 429 kts | 268° |
| 2026-05-04 19:16 | 43.22435 | 6.25139 | 26812 ft | 430 kts | 268° |
| 2026-05-04 19:17 | 43.22485 | 6.20977 | 27106 ft | 432 kts | 268° |
| 2026-05-04 19:17 | 43.22531 | 6.16912 | 27375 ft | 433 kts | 267° |
| 2026-05-04 19:17 | 43.22575 | 6.12780 | 27678 ft | 434 kts | 267° |
| 2026-05-04 19:17 | 43.22617 | 6.08596 | 27932 ft | 435 kts | 267° |
| 2026-05-04 19:18 | 43.22655 | 6.04431 | 28192 ft | 437 kts | 267° |
| 2026-05-04 19:18 | 43.22695 | 6.00270 | 28448 ft | 438 kts | 267° |
| 2026-05-04 19:18 | 43.22735 | 5.96089 | 28676 ft | 439 kts | 267° |
| 2026-05-04 19:18 | 43.22773 | 5.91909 | 29001 ft | 438 kts | 267° |
| 2026-05-04 19:19 | 43.22811 | 5.87728 | 29344 ft | 437 kts | 267° |
| 2026-05-04 19:19 | 43.22848 | 5.83574 | 29698 ft | 436 kts | 267° |
| 2026-05-04 19:19 | 43.22885 | 5.79419 | 30046 ft | 435 kts | 266° |
| 2026-05-04 19:19 | 43.22923 | 5.75274 | 30349 ft | 434 kts | 266° |
| 2026-05-04 19:20 | 43.22958 | 5.71150 | 30658 ft | 432 kts | 266° |
| 2026-05-04 19:20 | 43.22990 | 5.67043 | 30920 ft | 431 kts | 266° |
| 2026-05-04 19:20 | 43.23009 | 5.64325 | 30966 ft | 430 kts | 266° |
| 2026-05-04 19:21 | 43.23025 | 5.61805 | 30936 ft | 429 kts | 266° |
| 2026-05-04 19:21 | 43.23072 | 5.53634 | 30980 ft | 429 kts | 266° |
| 2026-05-04 19:22 | 43.23112 | 5.45450 | 30981 ft | 429 kts | 266° |
| 2026-05-04 19:22 | 43.23148 | 5.37247 | 30974 ft | 430 kts | 267° |
| 2026-05-04 19:23 | 43.24246 | 5.29113 | 30970 ft | 441 kts | 284° |
| 2026-05-04 19:23 | 43.26338 | 5.21196 | 30963 ft | 441 kts | 285° |
| 2026-05-04 19:24 | 43.28411 | 5.13269 | 30962 ft | 442 kts | 284° |
| 2026-05-04 19:24 | 43.30476 | 5.05334 | 30958 ft | 442 kts | 284° |
| 2026-05-04 19:25 | 43.32541 | 4.97373 | 30960 ft | 442 kts | 284° |
| 2026-05-04 19:25 | 43.34594 | 4.89418 | 30954 ft | 442 kts | 284° |
| 2026-05-04 19:26 | 43.36646 | 4.81440 | 30959 ft | 443 kts | 284° |
| 2026-05-04 19:26 | 43.38692 | 4.73450 | 30956 ft | 443 kts | 284° |
| 2026-05-04 19:27 | 43.40735 | 4.65459 | 30950 ft | 443 kts | 284° |
| 2026-05-04 19:27 | 43.42780 | 4.57447 | 30941 ft | 444 kts | 284° |
| 2026-05-04 19:28 | 43.44816 | 4.49435 | 30930 ft | 444 kts | 284° |
| 2026-05-04 19:28 | 43.46625 | 4.41348 | 30928 ft | 437 kts | 273° |
| 2026-05-04 19:29 | 43.46872 | 4.33057 | 30923 ft | 434 kts | 267° |
| 2026-05-04 19:29 | 43.46984 | 4.24744 | 30920 ft | 434 kts | 266° |
| 2026-05-04 19:30 | 43.47078 | 4.16442 | 30925 ft | 435 kts | 266° |
| 2026-05-04 19:30 | 43.47181 | 4.08112 | 30926 ft | 436 kts | 267° |
| 2026-05-04 19:31 | 43.47285 | 3.99764 | 30925 ft | 436 kts | 267° |
| 2026-05-04 19:31 | 43.47383 | 3.91401 | 30925 ft | 437 kts | 266° |
| 2026-05-04 19:32 | 43.47474 | 3.83022 | 30923 ft | 438 kts | 267° |
| 2026-05-04 19:32 | 43.47555 | 3.74621 | 30920 ft | 439 kts | 266° |
| 2026-05-04 19:33 | 43.47626 | 3.66208 | 30918 ft | 440 kts | 266° |
| 2026-05-04 19:33 | 43.47694 | 3.57782 | 30905 ft | 441 kts | 266° |
| 2026-05-04 19:34 | 43.47760 | 3.49293 | 30903 ft | 441 kts | 266° |
| 2026-05-04 19:34 | 43.47820 | 3.40830 | 30901 ft | 442 kts | 266° |
| 2026-05-04 19:35 | 43.47868 | 3.32414 | 30902 ft | 443 kts | 266° |
| 2026-05-04 19:35 | 43.47913 | 3.23931 | 30900 ft | 443 kts | 266° |
| 2026-05-04 19:36 | 43.47952 | 3.15378 | 30902 ft | 444 kts | 266° |
| 2026-05-04 19:36 | 43.47990 | 3.06884 | 30905 ft | 445 kts | 266° |
| 2026-05-04 19:37 | 43.48021 | 2.98362 | 30903 ft | 445 kts | 266° |
| 2026-05-04 19:37 | 43.48037 | 2.90351 | 30914 ft | 445 kts | 266° |
| 2026-05-04 19:38 | 43.48048 | 2.82691 | 30907 ft | 446 kts | 266° |
| 2026-05-04 19:38 | 43.48051 | 2.74142 | 30924 ft | 446 kts | 266° |
| 2026-05-04 19:39 | 43.48052 | 2.67044 | 30940 ft | 447 kts | 266° |
| 2026-05-04 19:39 | 43.48052 | 2.59340 | 30956 ft | 447 kts | 266° |
| 2026-05-04 19:40 | 43.48044 | 2.50781 | 30969 ft | 447 kts | 265° |
| 2026-05-04 19:40 | 43.48030 | 2.42220 | 30982 ft | 448 kts | 265° |
| 2026-05-04 19:41 | 43.48010 | 2.33632 | 30983 ft | 448 kts | 265° |
| 2026-05-04 19:41 | 43.47976 | 2.25068 | 30986 ft | 448 kts | 265° |
| 2026-05-04 19:42 | 43.47941 | 2.16491 | 30987 ft | 448 kts | 265° |
| 2026-05-04 19:42 | 43.47899 | 2.07934 | 30985 ft | 447 kts | 265° |
| 2026-05-04 19:43 | 43.47853 | 1.99391 | 30980 ft | 447 kts | 265° |
| 2026-05-04 19:43 | 43.47801 | 1.90835 | 30981 ft | 446 kts | 265° |
| 2026-05-04 19:44 | 43.47748 | 1.82315 | 30982 ft | 445 kts | 264° |
| 2026-05-04 19:44 | 43.47684 | 1.73795 | 30984 ft | 444 kts | 264° |
| 2026-05-04 19:45 | 43.47605 | 1.65296 | 30983 ft | 444 kts | 264° |
| 2026-05-04 19:45 | 43.47530 | 1.56802 | 30986 ft | 443 kts | 264° |
| 2026-05-04 19:46 | 43.47449 | 1.48319 | 30977 ft | 443 kts | 264° |
| 2026-05-04 19:46 | 43.47358 | 1.39852 | 30974 ft | 442 kts | 264° |
| 2026-05-04 19:47 | 43.47255 | 1.31400 | 30967 ft | 442 kts | 263° |
| 2026-05-04 19:47 | 43.47146 | 1.22949 | 30975 ft | 441 kts | 263° |
| 2026-05-04 19:48 | 43.47038 | 1.14498 | 30974 ft | 441 kts | 263° |
| 2026-05-04 19:48 | 43.46927 | 1.06052 | 30968 ft | 441 kts | 263° |
| 2026-05-04 19:49 | 43.46809 | 0.97625 | 30249 ft | 438 kts | 263° |
| 2026-05-04 19:49 | 43.46746 | 0.93366 | 29300 ft | 439 kts | 263° |
| 2026-05-04 19:49 | 43.46680 | 0.89179 | 28632 ft | 435 kts | 263° |
| 2026-05-04 19:49 | 43.46614 | 0.85040 | 27986 ft | 431 kts | 263° |
| 2026-05-04 19:50 | 43.46549 | 0.80939 | 27340 ft | 427 kts | 264° |
| 2026-05-04 19:50 | 43.46483 | 0.76874 | 26737 ft | 423 kts | 264° |
| 2026-05-04 19:50 | 43.46417 | 0.72840 | 26173 ft | 419 kts | 264° |
| 2026-05-04 19:50 | 43.46349 | 0.68850 | 25603 ft | 416 kts | 264° |
| 2026-05-04 19:51 | 43.46277 | 0.64883 | 25032 ft | 412 kts | 264° |
| 2026-05-04 19:51 | 43.46206 | 0.60959 | 24490 ft | 409 kts | 264° |
| 2026-05-04 19:51 | 43.46135 | 0.57063 | 23950 ft | 406 kts | 264° |
| 2026-05-04 19:51 | 43.46065 | 0.53192 | 23415 ft | 403 kts | 264° |
| 2026-05-04 19:52 | 43.45993 | 0.49352 | 22843 ft | 400 kts | 264° |
| 2026-05-04 19:52 | 43.45921 | 0.45535 | 22321 ft | 396 kts | 264° |
| 2026-05-04 19:52 | 43.45847 | 0.41768 | 21811 ft | 390 kts | 264° |
| 2026-05-04 19:52 | 43.45772 | 0.38059 | 21071 ft | 388 kts | 265° |
| 2026-05-04 19:53 | 43.45694 | 0.34372 | 20632 ft | 383 kts | 265° |
| 2026-05-04 19:53 | 43.45616 | 0.30727 | 20179 ft | 379 kts | 265° |
| 2026-05-04 19:53 | 43.45541 | 0.27112 | 19729 ft | 376 kts | 265° |
| 2026-05-04 19:53 | 43.45467 | 0.23536 | 19285 ft | 372 kts | 265° |
| 2026-05-04 19:54 | 43.45392 | 0.19989 | 18842 ft | 369 kts | 265° |
| 2026-05-04 19:54 | 43.45318 | 0.16477 | 18407 ft | 366 kts | 265° |
| 2026-05-04 19:54 | 43.45244 | 0.12987 | 17922 ft | 363 kts | 265° |
| 2026-05-04 19:54 | 43.45167 | 0.09539 | 17506 ft | 354 kts | 266° |
| 2026-05-04 19:55 | 43.45093 | 0.06242 | 17105 ft | 337 kts | 265° |
| 2026-05-04 19:55 | 43.45019 | 0.03060 | 16436 ft | 330 kts | 266° |
| 2026-05-04 19:55 | 43.44945 | -0.00090 | 15855 ft | 329 kts | 266° |
| 2026-05-04 19:55 | 43.44869 | -0.03209 | 15487 ft | 326 kts | 266° |
| 2026-05-04 19:56 | 43.44791 | -0.06331 | 15098 ft | 324 kts | 266° |
| 2026-05-04 19:56 | 43.44717 | -0.09405 | 14570 ft | 322 kts | 266° |
| 2026-05-04 19:56 | 43.44644 | -0.12484 | 14194 ft | 320 kts | 266° |
| 2026-05-04 19:56 | 43.44570 | -0.15537 | 13827 ft | 318 kts | 266° |
| 2026-05-04 19:57 | 43.44497 | -0.18566 | 13370 ft | 314 kts | 266° |
| 2026-05-04 19:57 | 43.44424 | -0.21511 | 12849 ft | 304 kts | 266° |
| 2026-05-04 19:57 | 43.44353 | -0.24385 | 12203 ft | 301 kts | 266° |
| 2026-05-04 19:57 | 43.44279 | -0.27261 | 11825 ft | 300 kts | 266° |
| 2026-05-04 19:58 | 43.44204 | -0.30120 | 11456 ft | 298 kts | 266° |
| 2026-05-04 19:58 | 43.44127 | -0.32958 | 11088 ft | 296 kts | 266° |
| 2026-05-04 19:58 | 43.44053 | -0.35741 | 10700 ft | 287 kts | 266° |
| 2026-05-04 19:58 | 43.43981 | -0.38469 | 10396 ft | 284 kts | 266° |
| 2026-05-04 19:59 | 43.43910 | -0.41167 | 10075 ft | 281 kts | 266° |
| 2026-05-04 19:59 | 43.43839 | -0.43853 | 9733 ft | 280 kts | 266° |
| 2026-05-04 19:59 | 43.43766 | -0.46517 | 9360 ft | 278 kts | 266° |
| 2026-05-04 19:59 | 43.43693 | -0.49171 | 8980 ft | 276 kts | 267° |
| 2026-05-04 20:00 | 43.43621 | -0.51798 | 8709 ft | 275 kts | 267° |
| 2026-05-04 20:00 | 43.43547 | -0.54429 | 8483 ft | 275 kts | 267° |
| 2026-05-04 20:00 | 43.43474 | -0.57047 | 8251 ft | 274 kts | 267° |
| 2026-05-04 20:00 | 43.43399 | -0.59665 | 8017 ft | 273 kts | 267° |
| 2026-05-04 20:01 | 43.43321 | -0.62270 | 7786 ft | 272 kts | 268° |
| 2026-05-04 20:01 | 43.43245 | -0.64865 | 7560 ft | 271 kts | 268° |
| 2026-05-04 20:01 | 43.43171 | -0.67453 | 7336 ft | 271 kts | 268° |
| 2026-05-04 20:01 | 43.43097 | -0.70034 | 7109 ft | 270 kts | 268° |
| 2026-05-04 20:02 | 43.43021 | -0.72613 | 6889 ft | 270 kts | 268° |
| 2026-05-04 20:02 | 43.42944 | -0.75193 | 6669 ft | 269 kts | 269° |
| 2026-05-04 20:02 | 43.42867 | -0.77761 | 6444 ft | 269 kts | 269° |
| 2026-05-04 20:02 | 43.42788 | -0.80329 | 6219 ft | 269 kts | 269° |
| 2026-05-04 20:03 | 43.42709 | -0.82895 | 5977 ft | 268 kts | 269° |
| 2026-05-04 20:03 | 43.42630 | -0.85455 | 5748 ft | 268 kts | 269° |
| 2026-05-04 20:03 | 43.42550 | -0.88008 | 5513 ft | 267 kts | 269° |
| 2026-05-04 20:03 | 43.42469 | -0.90558 | 5289 ft | 266 kts | 269° |
| 2026-05-04 20:04 | 43.42388 | -0.93139 | 5053 ft | 266 kts | 269° |
| 2026-05-04 20:04 | 43.42308 | -0.95672 | 4824 ft | 265 kts | 269° |
| 2026-05-04 20:04 | 43.42229 | -0.98199 | 4592 ft | 264 kts | 269° |
| 2026-05-04 20:04 | 43.42150 | -1.00678 | 4370 ft | 262 kts | 269° |
| 2026-05-04 20:05 | 43.42071 | -1.03160 | 4130 ft | 256 kts | 269° |
| 2026-05-04 20:05 | 43.41992 | -1.05559 | 3904 ft | 247 kts | 269° |
| 2026-05-04 20:05 | 43.41912 | -1.07911 | 3657 ft | 239 kts | 269° |
| 2026-05-04 20:05 | 43.41838 | -1.10154 | 3441 ft | 237 kts | 269° |
| 2026-05-04 20:06 | 43.41835 | -1.12405 | 3217 ft | 234 kts | 278° |
| 2026-05-04 20:06 | 43.42224 | -1.14558 | 2985 ft | 232 kts | 293° |
| 2026-05-04 20:06 | 43.42981 | -1.16525 | 2744 ft | 226 kts | 301° |
| 2026-05-04 20:06 | 43.43760 | -1.18353 | 2569 ft | 216 kts | 301° |
| 2026-05-04 20:07 | 43.44497 | -1.20095 | 2503 ft | 205 kts | 301° |
| 2026-05-04 20:07 | 43.45208 | -1.21773 | 2509 ft | 202 kts | 301° |
| 2026-05-04 20:07 | 43.45913 | -1.23436 | 2510 ft | 200 kts | 301° |
| 2026-05-04 20:07 | 43.46611 | -1.25087 | 2509 ft | 199 kts | 299° |
| 2026-05-04 20:08 | 43.47046 | -1.26868 | 2505 ft | 195 kts | 276° |
| 2026-05-04 20:08 | 43.47058 | -1.28718 | 2510 ft | 192 kts | 270° |
| 2026-05-04 20:08 | 43.47041 | -1.30561 | 2516 ft | 192 kts | 270° |
| 2026-05-04 20:08 | 43.47025 | -1.32395 | 2510 ft | 192 kts | 270° |
| 2026-05-04 20:09 | 43.47010 | -1.34224 | 2509 ft | 188 kts | 270° |
| 2026-05-04 20:09 | 43.46994 | -1.35982 | 2392 ft | 178 kts | 270° |
| 2026-05-04 20:09 | 43.46979 | -1.37606 | 2180 ft | 160 kts | 271° |
| 2026-05-04 20:09 | 43.46966 | -1.39066 | 1960 ft | 146 kts | 270° |
| 2026-05-04 20:10 | 43.46954 | -1.40429 | 1772 ft | 141 kts | 270° |
| 2026-05-04 20:10 | 43.46942 | -1.41763 | 1567 ft | 138 kts | 270° |
| 2026-05-04 20:10 | 43.46929 | -1.43082 | 1391 ft | 138 kts | 270° |
| 2026-05-04 20:10 | 43.46917 | -1.44396 | 1203 ft | 137 kts | 270° |
| 2026-05-04 20:11 | 43.46905 | -1.45708 | 1014 ft | 137 kts | 269° |
| 2026-05-04 20:11 | 43.46892 | -1.47019 | 829 ft | 137 kts | 270° |
| 2026-05-04 20:11 | 43.46878 | -1.48326 | 627 ft | 136 kts | 270° |
| 2026-05-04 20:11 | 43.46867 | -1.49628 | 435 ft | 136 kts | 269° |
| 2026-05-04 20:12 | 43.46855 | -1.50927 | 274 ft | 136 kts | 269° |
| 2026-05-04 20:12 | 43.46844 | -1.52106 | 238 ft | 92 kts | 270° |
| 2026-05-04 20:12 | 43.46839 | -1.52696 | 244 ft | 50 kts | 269° |
| 2026-05-04 20:12 | 43.46835 | -1.53038 | 247 ft | 23 kts | 273° |
| 2026-05-04 20:13 | 43.46887 | -1.53153 | 247 ft | 15 kts | 329° |
| 2026-05-04 20:13 | 43.46946 | -1.53192 | 248 ft | 8 kts | 337° |
| 2026-05-04 20:13 | 43.46992 | -1.53200 | 248 ft | 6 kts | 0° |
| 2026-05-04 20:13 | 43.47024 | -1.53186 | 248 ft | 4 kts | 37° |
| 2026-05-04 20:14 | 43.47043 | -1.53156 | 248 ft | 4 kts | 56° |
| 2026-05-04 20:14 | 43.47051 | -1.53123 | 247 ft | 4 kts | 79° |
| 2026-05-04 20:14 | 43.47054 | -1.53095 | 247 ft | 4 kts | 84° |
| 2026-05-04 20:14 | 43.47055 | -1.53054 | 247 ft | 5 kts | 89° |
| 2026-05-04 20:15 | 43.47060 | -1.53008 | 246 ft | 4 kts | 56° |
| 2026-05-04 20:15 | 43.47082 | -1.53001 | 246 ft | 3 kts | 8° |
| 2026-05-04 20:15 | 43.47100 | -1.53001 | 246 ft | 2 kts | 360° |
| 2026-05-04 20:15 | 43.47114 | -1.53001 | 246 ft | 2 kts | 359° |
| 2026-05-04 20:16 | 43.47126 | -1.53001 | 246 ft | 2 kts | 359° |
| 2026-05-04 20:16 | 43.47133 | -1.53001 | 246 ft | 0 kts | 359° |